sensor_id;sensor_type;location;lat;lon;timestamp;P1;durP1;ratioP1;P2;durP2;ratioP2
15055;SDS011;7626;42.674;23.284;2023-03-14T00:00:47;21.23;;;15.20;;
15055;SDS011;7626;42.674;23.284;2023-03-14T00:03:15;20.93;;;16.90;;
15055;SDS011;7626;42.674;23.284;2023-03-14T00:05:42;19.40;;;15.73;;
15055;SDS011;7626;42.674;23.284;2023-03-14T00:08:08;21.00;;;15.17;;
15055;SDS011;7626;42.674;23.284;2023-03-14T00:10:35;22.27;;;15.97;;
15055;SDS011;7626;42.674;23.284;2023-03-14T00:13:02;19.90;;;15.43;;
15055;SDS011;7626;42.674;23.284;2023-03-14T00:15:28;22.60;;;16.43;;
15055;SDS011;7626;42.674;23.284;2023-03-14T00:17:55;18.43;;;15.60;;
15055;SDS011;7626;42.674;23.284;2023-03-14T00:20:23;18.63;;;14.97;;
15055;SDS011;7626;42.674;23.284;2023-03-14T00:22:49;19.63;;;15.63;;
15055;SDS011;7626;42.674;23.284;2023-03-14T00:25:16;20.90;;;15.87;;
15055;SDS011;7626;42.674;23.284;2023-03-14T00:27:42;24.33;;;15.67;;
15055;SDS011;7626;42.674;23.284;2023-03-14T00:30:09;22.13;;;15.53;;
15055;SDS011;7626;42.674;23.284;2023-03-14T00:32:36;20.90;;;15.23;;
15055;SDS011;7626;42.674;23.284;2023-03-14T00:35:03;20.90;;;14.93;;
15055;SDS011;7626;42.674;23.284;2023-03-14T00:37:31;19.30;;;14.57;;
15055;SDS011;7626;42.674;23.284;2023-03-14T00:39:57;19.60;;;14.43;;
15055;SDS011;7626;42.674;23.284;2023-03-14T00:42:24;21.40;;;14.77;;
15055;SDS011;7626;42.674;23.284;2023-03-14T00:44:50;20.27;;;15.10;;
15055;SDS011;7626;42.674;23.284;2023-03-14T00:47:16;19.50;;;14.03;;
15055;SDS011;7626;42.674;23.284;2023-03-14T00:49:43;18.83;;;12.90;;
15055;SDS011;7626;42.674;23.284;2023-03-14T00:52:09;17.60;;;13.33;;
15055;SDS011;7626;42.674;23.284;2023-03-14T00:54:37;19.27;;;13.67;;
15055;SDS011;7626;42.674;23.284;2023-03-14T00:57:04;16.57;;;13.23;;
15055;SDS011;7626;42.674;23.284;2023-03-14T00:59:30;17.03;;;12.93;;
15055;SDS011;7626;42.674;23.284;2023-03-14T01:01:57;19.63;;;13.90;;
15055;SDS011;7626;42.674;23.284;2023-03-14T01:04:23;17.43;;;13.33;;
15055;SDS011;7626;42.674;23.284;2023-03-14T01:06:50;16.63;;;13.30;;
15055;SDS011;7626;42.674;23.284;2023-03-14T01:09:16;16.43;;;12.53;;
15055;SDS011;7626;42.674;23.284;2023-03-14T01:11:44;15.80;;;12.90;;
15055;SDS011;7626;42.674;23.284;2023-03-14T01:14:11;18.53;;;13.93;;
15055;SDS011;7626;42.674;23.284;2023-03-14T01:16:38;18.27;;;13.27;;
15055;SDS011;7626;42.674;23.284;2023-03-14T01:19:04;21.70;;;13.20;;
15055;SDS011;7626;42.674;23.284;2023-03-14T01:21:32;18.77;;;13.40;;
15055;SDS011;7626;42.674;23.284;2023-03-14T01:23:59;16.87;;;13.80;;
15055;SDS011;7626;42.674;23.284;2023-03-14T01:26:27;19.20;;;13.73;;
15055;SDS011;7626;42.674;23.284;2023-03-14T01:28:56;18.43;;;13.80;;
15055;SDS011;7626;42.674;23.284;2023-03-14T01:31:23;17.13;;;13.63;;
15055;SDS011;7626;42.674;23.284;2023-03-14T01:33:50;19.17;;;14.30;;
15055;SDS011;7626;42.674;23.284;2023-03-14T01:36:17;18.03;;;14.07;;
15055;SDS011;7626;42.674;23.284;2023-03-14T01:38:43;19.57;;;14.17;;
15055;SDS011;7626;42.674;23.284;2023-03-14T01:41:12;17.33;;;13.03;;
15055;SDS011;7626;42.674;23.284;2023-03-14T01:43:38;19.40;;;14.20;;
15055;SDS011;7626;42.674;23.284;2023-03-14T01:48:50;15.70;;;12.93;;
15055;SDS011;7626;42.674;23.284;2023-03-14T01:51:19;17.07;;;12.77;;
15055;SDS011;7626;42.674;23.284;2023-03-14T01:53:47;18.07;;;13.23;;
15055;SDS011;7626;42.674;23.284;2023-03-14T01:56:14;15.83;;;12.83;;
15055;SDS011;7626;42.674;23.284;2023-03-14T01:58:42;13.70;;;12.10;;
15055;SDS011;7626;42.674;23.284;2023-03-14T02:01:10;15.07;;;12.53;;
15055;SDS011;7626;42.674;23.284;2023-03-14T02:03:38;14.67;;;12.33;;
15055;SDS011;7626;42.674;23.284;2023-03-14T02:06:07;15.53;;;12.77;;
15055;SDS011;7626;42.674;23.284;2023-03-14T02:08:33;15.83;;;12.57;;
15055;SDS011;7626;42.674;23.284;2023-03-14T02:11:01;14.93;;;12.63;;
15055;SDS011;7626;42.674;23.284;2023-03-14T02:13:28;18.53;;;12.63;;
15055;SDS011;7626;42.674;23.284;2023-03-14T02:15:54;16.10;;;12.37;;
15055;SDS011;7626;42.674;23.284;2023-03-14T02:18:20;17.13;;;13.07;;
15055;SDS011;7626;42.674;23.284;2023-03-14T02:20:48;17.43;;;12.53;;
15055;SDS011;7626;42.674;23.284;2023-03-14T02:23:21;13.83;;;11.90;;
15055;SDS011;7626;42.674;23.284;2023-03-14T02:25:53;14.90;;;12.13;;
15055;SDS011;7626;42.674;23.284;2023-03-14T02:28:22;15.43;;;12.17;;
15055;SDS011;7626;42.674;23.284;2023-03-14T02:30:49;16.77;;;12.30;;
15055;SDS011;7626;42.674;23.284;2023-03-14T02:33:16;15.77;;;11.93;;
15055;SDS011;7626;42.674;23.284;2023-03-14T02:35:44;17.00;;;12.97;;
15055;SDS011;7626;42.674;23.284;2023-03-14T02:38:13;14.33;;;12.10;;
15055;SDS011;7626;42.674;23.284;2023-03-14T02:40:41;14.67;;;12.00;;
15055;SDS011;7626;42.674;23.284;2023-03-14T02:43:07;14.33;;;11.33;;
15055;SDS011;7626;42.674;23.284;2023-03-14T02:45:39;14.93;;;11.47;;
15055;SDS011;7626;42.674;23.284;2023-03-14T02:48:07;15.23;;;11.73;;
15055;SDS011;7626;42.674;23.284;2023-03-14T02:50:35;13.97;;;11.53;;
15055;SDS011;7626;42.674;23.284;2023-03-14T02:53:01;14.50;;;12.20;;
15055;SDS011;7626;42.674;23.284;2023-03-14T02:55:28;14.80;;;11.50;;
15055;SDS011;7626;42.674;23.284;2023-03-14T02:57:54;14.80;;;11.27;;
15055;SDS011;7626;42.674;23.284;2023-03-14T03:00:21;15.47;;;11.30;;
15055;SDS011;7626;42.674;23.284;2023-03-14T03:02:49;13.87;;;11.33;;
15055;SDS011;7626;42.674;23.284;2023-03-14T03:05:15;14.77;;;11.20;;
15055;SDS011;7626;42.674;23.284;2023-03-14T03:07:42;15.33;;;12.27;;
15055;SDS011;7626;42.674;23.284;2023-03-14T03:10:08;16.90;;;12.97;;
15055;SDS011;7626;42.674;23.284;2023-03-14T03:12:35;16.30;;;12.17;;
15055;SDS011;7626;42.674;23.284;2023-03-14T03:15:02;17.23;;;11.73;;
15055;SDS011;7626;42.674;23.284;2023-03-14T03:17:28;13.40;;;11.73;;
15055;SDS011;7626;42.674;23.284;2023-03-14T03:19:56;16.83;;;12.57;;
15055;SDS011;7626;42.674;23.284;2023-03-14T03:22:22;14.00;;;11.73;;
15055;SDS011;7626;42.674;23.284;2023-03-14T03:24:49;15.00;;;12.63;;
15055;SDS011;7626;42.674;23.284;2023-03-14T03:27:15;15.80;;;13.03;;
15055;SDS011;7626;42.674;23.284;2023-03-14T03:29:42;16.87;;;13.40;;
15055;SDS011;7626;42.674;23.284;2023-03-14T03:32:08;14.47;;;12.13;;
15055;SDS011;7626;42.674;23.284;2023-03-14T03:34:35;16.23;;;12.57;;
15055;SDS011;7626;42.674;23.284;2023-03-14T03:37:03;14.20;;;11.80;;
15055;SDS011;7626;42.674;23.284;2023-03-14T03:39:29;16.77;;;13.23;;
15055;SDS011;7626;42.674;23.284;2023-03-14T03:41:56;19.93;;;16.20;;
15055;SDS011;7626;42.674;23.284;2023-03-14T03:44:22;17.30;;;14.60;;
15055;SDS011;7626;42.674;23.284;2023-03-14T03:46:49;16.93;;;13.63;;
15055;SDS011;7626;42.674;23.284;2023-03-14T03:49:15;16.37;;;13.60;;
15055;SDS011;7626;42.674;23.284;2023-03-14T03:51:41;16.23;;;13.00;;
15055;SDS011;7626;42.674;23.284;2023-03-14T03:54:09;17.57;;;13.43;;
15055;SDS011;7626;42.674;23.284;2023-03-14T03:56:36;19.57;;;15.37;;
15055;SDS011;7626;42.674;23.284;2023-03-14T03:59:02;21.67;;;15.17;;
15055;SDS011;7626;42.674;23.284;2023-03-14T04:01:29;19.60;;;15.87;;
15055;SDS011;7626;42.674;23.284;2023-03-14T04:03:55;21.93;;;17.00;;
15055;SDS011;7626;42.674;23.284;2023-03-14T04:06:22;20.63;;;15.50;;
15055;SDS011;7626;42.674;23.284;2023-03-14T04:08:48;17.60;;;14.10;;
15055;SDS011;7626;42.674;23.284;2023-03-14T04:11:16;18.30;;;14.47;;
15055;SDS011;7626;42.674;23.284;2023-03-14T04:13:42;17.37;;;13.27;;
15055;SDS011;7626;42.674;23.284;2023-03-14T04:16:11;18.13;;;14.10;;
15055;SDS011;7626;42.674;23.284;2023-03-14T04:18:40;19.03;;;13.73;;
15055;SDS011;7626;42.674;23.284;2023-03-14T04:21:06;15.87;;;13.93;;
15055;SDS011;7626;42.674;23.284;2023-03-14T04:23:33;19.47;;;15.87;;
15055;SDS011;7626;42.674;23.284;2023-03-14T04:25:59;24.50;;;18.73;;
15055;SDS011;7626;42.674;23.284;2023-03-14T04:28:28;22.40;;;18.13;;
15055;SDS011;7626;42.674;23.284;2023-03-14T04:30:55;21.00;;;17.27;;
15055;SDS011;7626;42.674;23.284;2023-03-14T04:33:22;27.93;;;20.43;;
15055;SDS011;7626;42.674;23.284;2023-03-14T04:35:48;23.80;;;18.37;;
15055;SDS011;7626;42.674;23.284;2023-03-14T04:38:15;19.03;;;15.93;;
15055;SDS011;7626;42.674;23.284;2023-03-14T04:40:42;20.67;;;14.77;;
15055;SDS011;7626;42.674;23.284;2023-03-14T04:43:09;19.57;;;15.37;;
15055;SDS011;7626;42.674;23.284;2023-03-14T04:45:39;17.60;;;13.83;;
15055;SDS011;7626;42.674;23.284;2023-03-14T04:48:07;18.00;;;14.17;;
15055;SDS011;7626;42.674;23.284;2023-03-14T04:50:34;17.93;;;13.27;;
15055;SDS011;7626;42.674;23.284;2023-03-14T04:53:00;20.43;;;14.00;;
15055;SDS011;7626;42.674;23.284;2023-03-14T04:55:27;17.47;;;14.03;;
15055;SDS011;7626;42.674;23.284;2023-03-14T04:57:53;18.20;;;14.20;;
15055;SDS011;7626;42.674;23.284;2023-03-14T05:00:20;20.40;;;14.33;;
15055;SDS011;7626;42.674;23.284;2023-03-14T05:02:48;19.97;;;14.47;;
15055;SDS011;7626;42.674;23.284;2023-03-14T05:05:15;17.73;;;13.57;;
15055;SDS011;7626;42.674;23.284;2023-03-14T05:07:41;19.63;;;14.30;;
15055;SDS011;7626;42.674;23.284;2023-03-14T05:10:08;15.57;;;13.90;;
15055;SDS011;7626;42.674;23.284;2023-03-14T05:12:35;17.50;;;13.47;;
15055;SDS011;7626;42.674;23.284;2023-03-14T05:15:01;17.23;;;13.57;;
15055;SDS011;7626;42.674;23.284;2023-03-14T05:17:29;16.00;;;13.47;;
15055;SDS011;7626;42.674;23.284;2023-03-14T05:19:57;21.00;;;14.13;;
15055;SDS011;7626;42.674;23.284;2023-03-14T05:22:23;17.50;;;14.97;;
15055;SDS011;7626;42.674;23.284;2023-03-14T05:24:50;25.83;;;14.23;;
15055;SDS011;7626;42.674;23.284;2023-03-14T05:27:18;41.70;;;21.80;;
15055;SDS011;7626;42.674;23.284;2023-03-14T05:29:45;21.53;;;15.70;;
15055;SDS011;7626;42.674;23.284;2023-03-14T05:32:13;21.30;;;15.73;;
15055;SDS011;7626;42.674;23.284;2023-03-14T05:34:39;21.47;;;16.73;;
15055;SDS011;7626;42.674;23.284;2023-03-14T05:37:07;32.90;;;23.77;;
15055;SDS011;7626;42.674;23.284;2023-03-14T05:39:33;30.83;;;22.47;;
15055;SDS011;7626;42.674;23.284;2023-03-14T05:42:00;22.23;;;17.17;;
15055;SDS011;7626;42.674;23.284;2023-03-14T05:44:26;24.07;;;17.07;;
15055;SDS011;7626;42.674;23.284;2023-03-14T05:46:53;31.63;;;19.23;;
15055;SDS011;7626;42.674;23.284;2023-03-14T05:49:19;22.00;;;17.10;;
15055;SDS011;7626;42.674;23.284;2023-03-14T05:51:46;22.10;;;15.77;;
15055;SDS011;7626;42.674;23.284;2023-03-14T05:54:14;20.33;;;13.80;;
15055;SDS011;7626;42.674;23.284;2023-03-14T05:56:40;15.83;;;12.83;;
15055;SDS011;7626;42.674;23.284;2023-03-14T05:59:07;16.50;;;12.97;;
15055;SDS011;7626;42.674;23.284;2023-03-14T06:01:34;18.90;;;13.43;;
15055;SDS011;7626;42.674;23.284;2023-03-14T06:04:00;16.10;;;12.67;;
15055;SDS011;7626;42.674;23.284;2023-03-14T06:06:27;15.73;;;13.37;;
15055;SDS011;7626;42.674;23.284;2023-03-14T06:08:53;19.80;;;13.43;;
15055;SDS011;7626;42.674;23.284;2023-03-14T06:11:21;19.93;;;13.37;;
15055;SDS011;7626;42.674;23.284;2023-03-14T06:13:48;18.80;;;14.77;;
15055;SDS011;7626;42.674;23.284;2023-03-14T06:16:14;29.93;;;19.00;;
15055;SDS011;7626;42.674;23.284;2023-03-14T06:18:41;26.57;;;18.90;;
15055;SDS011;7626;42.674;23.284;2023-03-14T06:21:11;22.50;;;16.97;;
15055;SDS011;7626;42.674;23.284;2023-03-14T06:23:38;20.43;;;16.70;;
15055;SDS011;7626;42.674;23.284;2023-03-14T06:26:04;22.10;;;15.90;;
15055;SDS011;7626;42.674;23.284;2023-03-14T06:28:32;26.13;;;19.90;;
15055;SDS011;7626;42.674;23.284;2023-03-14T06:30:59;25.40;;;16.60;;
15055;SDS011;7626;42.674;23.284;2023-03-14T06:33:26;28.63;;;17.23;;
15055;SDS011;7626;42.674;23.284;2023-03-14T06:35:56;20.97;;;17.03;;
15055;SDS011;7626;42.674;23.284;2023-03-14T06:38:22;26.17;;;20.57;;
15055;SDS011;7626;42.674;23.284;2023-03-14T06:40:49;26.70;;;19.80;;
15055;SDS011;7626;42.674;23.284;2023-03-14T06:43:15;22.90;;;16.27;;
15055;SDS011;7626;42.674;23.284;2023-03-14T06:45:43;22.57;;;17.13;;
15055;SDS011;7626;42.674;23.284;2023-03-14T06:48:10;22.10;;;17.90;;
15055;SDS011;7626;42.674;23.284;2023-03-14T06:50:36;23.83;;;17.60;;
15055;SDS011;7626;42.674;23.284;2023-03-14T06:53:03;22.07;;;18.20;;
15055;SDS011;7626;42.674;23.284;2023-03-14T06:55:29;25.23;;;17.70;;
15055;SDS011;7626;42.674;23.284;2023-03-14T06:57:56;20.97;;;15.80;;
15055;SDS011;7626;42.674;23.284;2023-03-14T07:00:22;17.10;;;13.77;;
15055;SDS011;7626;42.674;23.284;2023-03-14T07:02:51;15.60;;;11.70;;
15055;SDS011;7626;42.674;23.284;2023-03-14T07:05:17;18.13;;;11.90;;
15055;SDS011;7626;42.674;23.284;2023-03-14T07:07:44;15.50;;;11.83;;
15055;SDS011;7626;42.674;23.284;2023-03-14T07:10:10;15.70;;;12.00;;
15055;SDS011;7626;42.674;23.284;2023-03-14T07:12:37;15.63;;;11.77;;
15055;SDS011;7626;42.674;23.284;2023-03-14T07:15:04;22.37;;;13.47;;
15055;SDS011;7626;42.674;23.284;2023-03-14T07:17:30;17.87;;;13.63;;
15055;SDS011;7626;42.674;23.284;2023-03-14T07:19:58;17.43;;;12.10;;
15055;SDS011;7626;42.674;23.284;2023-03-14T07:22:26;24.50;;;18.70;;
15055;SDS011;7626;42.674;23.284;2023-03-14T07:24:52;22.03;;;16.20;;
15055;SDS011;7626;42.674;23.284;2023-03-14T07:27:18;19.30;;;14.97;;
15055;SDS011;7626;42.674;23.284;2023-03-14T07:29:45;21.60;;;14.73;;
15055;SDS011;7626;42.674;23.284;2023-03-14T07:32:11;17.53;;;13.47;;
15055;SDS011;7626;42.674;23.284;2023-03-14T07:34:39;18.50;;;13.17;;
15055;SDS011;7626;42.674;23.284;2023-03-14T07:37:07;15.77;;;13.33;;
15055;SDS011;7626;42.674;23.284;2023-03-14T07:39:34;18.30;;;13.80;;
15055;SDS011;7626;42.674;23.284;2023-03-14T07:42:00;15.17;;;12.73;;
15055;SDS011;7626;42.674;23.284;2023-03-14T07:44:27;19.80;;;13.50;;
15055;SDS011;7626;42.674;23.284;2023-03-14T07:46:53;13.37;;;10.87;;
15055;SDS011;7626;42.674;23.284;2023-03-14T07:49:20;13.43;;;11.27;;
15055;SDS011;7626;42.674;23.284;2023-03-14T07:51:47;14.97;;;10.63;;
15055;SDS011;7626;42.674;23.284;2023-03-14T07:54:15;13.77;;;9.50;;
15055;SDS011;7626;42.674;23.284;2023-03-14T07:56:41;16.13;;;11.40;;
15055;SDS011;7626;42.674;23.284;2023-03-14T07:59:08;12.83;;;10.70;;
15055;SDS011;7626;42.674;23.284;2023-03-14T08:01:34;15.33;;;10.40;;
15055;SDS011;7626;42.674;23.284;2023-03-14T08:04:01;13.30;;;10.27;;
15055;SDS011;7626;42.674;23.284;2023-03-14T08:06:27;21.07;;;12.10;;
15055;SDS011;7626;42.674;23.284;2023-03-14T08:08:54;17.13;;;11.00;;
15055;SDS011;7626;42.674;23.284;2023-03-14T08:11:22;16.13;;;11.30;;
15055;SDS011;7626;42.674;23.284;2023-03-14T08:13:48;14.77;;;10.53;;
15055;SDS011;7626;42.674;23.284;2023-03-14T08:16:16;16.47;;;12.20;;
15055;SDS011;7626;42.674;23.284;2023-03-14T08:18:43;16.77;;;14.13;;
15055;SDS011;7626;42.674;23.284;2023-03-14T08:21:10;24.07;;;18.90;;
15055;SDS011;7626;42.674;23.284;2023-03-14T08:23:36;25.73;;;15.97;;
15055;SDS011;7626;42.674;23.284;2023-03-14T08:26:03;24.07;;;16.00;;
15055;SDS011;7626;42.674;23.284;2023-03-14T08:28:31;21.97;;;15.93;;
15055;SDS011;7626;42.674;23.284;2023-03-14T08:30:58;18.13;;;15.20;;
15055;SDS011;7626;42.674;23.284;2023-03-14T08:33:25;19.57;;;16.03;;
15055;SDS011;7626;42.674;23.284;2023-03-14T08:35:52;23.67;;;16.60;;
15055;SDS011;7626;42.674;23.284;2023-03-14T08:38:20;22.00;;;16.77;;
15055;SDS011;7626;42.674;23.284;2023-03-14T08:40:47;22.57;;;16.67;;
15055;SDS011;7626;42.674;23.284;2023-03-14T08:43:14;21.43;;;17.27;;
15055;SDS011;7626;42.674;23.284;2023-03-14T08:45:42;22.27;;;16.63;;
15055;SDS011;7626;42.674;23.284;2023-03-14T08:48:08;20.83;;;16.27;;
15055;SDS011;7626;42.674;23.284;2023-03-14T08:50:35;17.73;;;15.03;;
15055;SDS011;7626;42.674;23.284;2023-03-14T08:53:01;24.10;;;16.67;;
15055;SDS011;7626;42.674;23.284;2023-03-14T08:55:28;19.50;;;16.17;;
15055;SDS011;7626;42.674;23.284;2023-03-14T08:57:54;17.43;;;14.43;;
15055;SDS011;7626;42.674;23.284;2023-03-14T09:00:21;18.87;;;14.33;;
15055;SDS011;7626;42.674;23.284;2023-03-14T09:02:49;14.40;;;12.67;;
15055;SDS011;7626;42.674;23.284;2023-03-14T09:05:16;14.80;;;11.40;;
15055;SDS011;7626;42.674;23.284;2023-03-14T09:07:42;13.77;;;12.17;;
15055;SDS011;7626;42.674;23.284;2023-03-14T09:10:09;13.90;;;12.50;;
15055;SDS011;7626;42.674;23.284;2023-03-14T09:12:36;14.23;;;12.00;;
15055;SDS011;7626;42.674;23.284;2023-03-14T09:15:03;12.83;;;11.00;;
15055;SDS011;7626;42.674;23.284;2023-03-14T09:17:29;15.67;;;12.20;;
15055;SDS011;7626;42.674;23.284;2023-03-14T09:19:57;12.03;;;10.47;;
15055;SDS011;7626;42.674;23.284;2023-03-14T09:22:24;13.57;;;10.93;;
15055;SDS011;7626;42.674;23.284;2023-03-14T09:24:51;13.97;;;10.57;;
15055;SDS011;7626;42.674;23.284;2023-03-14T09:27:17;11.70;;;10.23;;
15055;SDS011;7626;42.674;23.284;2023-03-14T09:29:44;11.27;;;9.20;;
15055;SDS011;7626;42.674;23.284;2023-03-14T09:32:10;11.80;;;10.60;;
15055;SDS011;7626;42.674;23.284;2023-03-14T09:34:37;11.77;;;9.07;;
15055;SDS011;7626;42.674;23.284;2023-03-14T09:37:04;13.77;;;10.67;;
15055;SDS011;7626;42.674;23.284;2023-03-14T09:39:31;11.23;;;10.03;;
15055;SDS011;7626;42.674;23.284;2023-03-14T09:41:58;13.73;;;10.23;;
15055;SDS011;7626;42.674;23.284;2023-03-14T09:44:28;10.73;;;9.60;;
15055;SDS011;7626;42.674;23.284;2023-03-14T09:46:56;13.30;;;10.20;;
15055;SDS011;7626;42.674;23.284;2023-03-14T09:49:25;12.23;;;10.37;;
15055;SDS011;7626;42.674;23.284;2023-03-14T09:51:54;12.73;;;9.97;;
15055;SDS011;7626;42.674;23.284;2023-03-14T09:54:31;13.07;;;10.93;;
15055;SDS011;7626;42.674;23.284;2023-03-14T09:56:59;12.97;;;10.70;;
15055;SDS011;7626;42.674;23.284;2023-03-14T09:59:26;12.83;;;9.57;;
15055;SDS011;7626;42.674;23.284;2023-03-14T10:01:53;12.30;;;9.33;;
15055;SDS011;7626;42.674;23.284;2023-03-14T10:04:22;11.10;;;10.00;;
15055;SDS011;7626;42.674;23.284;2023-03-14T10:06:49;11.07;;;9.00;;
15055;SDS011;7626;42.674;23.284;2023-03-14T10:09:17;10.07;;;9.07;;
15055;SDS011;7626;42.674;23.284;2023-03-14T10:11:51;13.10;;;8.57;;
15055;SDS011;7626;42.674;23.284;2023-03-14T10:14:28;10.77;;;8.63;;
15055;SDS011;7626;42.674;23.284;2023-03-14T10:16:55;10.47;;;8.90;;
15055;SDS011;7626;42.674;23.284;2023-03-14T10:19:30;11.97;;;8.30;;
15055;SDS011;7626;42.674;23.284;2023-03-14T10:21:56;8.70;;;7.83;;
15055;SDS011;7626;42.674;23.284;2023-03-14T10:24:27;10.70;;;9.10;;
15055;SDS011;7626;42.674;23.284;2023-03-14T10:26:58;12.67;;;9.37;;
15055;SDS011;7626;42.674;23.284;2023-03-14T10:29:26;14.13;;;9.53;;
15055;SDS011;7626;42.674;23.284;2023-03-14T10:31:53;10.90;;;8.60;;
15055;SDS011;7626;42.674;23.284;2023-03-14T10:34:22;11.00;;;8.07;;
15055;SDS011;7626;42.674;23.284;2023-03-14T10:36:51;9.70;;;7.50;;
15055;SDS011;7626;42.674;23.284;2023-03-14T10:39:22;21.20;;;9.67;;
15055;SDS011;7626;42.674;23.284;2023-03-14T10:41:52;9.90;;;8.87;;
15055;SDS011;7626;42.674;23.284;2023-03-14T10:44:21;14.77;;;9.27;;
15055;SDS011;7626;42.674;23.284;2023-03-14T10:46:53;10.30;;;8.53;;
15055;SDS011;7626;42.674;23.284;2023-03-14T10:49:23;9.33;;;8.43;;
15055;SDS011;7626;42.674;23.284;2023-03-14T10:51:51;11.03;;;9.53;;
15055;SDS011;7626;42.674;23.284;2023-03-14T10:54:19;11.60;;;8.90;;
15055;SDS011;7626;42.674;23.284;2023-03-14T10:56:47;11.43;;;9.30;;
15055;SDS011;7626;42.674;23.284;2023-03-14T10:59:23;11.73;;;10.33;;
15055;SDS011;7626;42.674;23.284;2023-03-14T11:01:51;12.03;;;10.77;;
15055;SDS011;7626;42.674;23.284;2023-03-14T11:04:25;12.93;;;9.27;;
15055;SDS011;7626;42.674;23.284;2023-03-14T11:06:58;12.43;;;8.77;;
15055;SDS011;7626;42.674;23.284;2023-03-14T11:09:29;10.30;;;8.37;;
15055;SDS011;7626;42.674;23.284;2023-03-14T11:11:59;10.97;;;9.87;;
15055;SDS011;7626;42.674;23.284;2023-03-14T11:14:31;11.33;;;8.80;;
15055;SDS011;7626;42.674;23.284;2023-03-14T11:17:02;8.83;;;7.80;;
15055;SDS011;7626;42.674;23.284;2023-03-14T11:19:37;9.83;;;8.83;;
15055;SDS011;7626;42.674;23.284;2023-03-14T11:22:08;9.83;;;7.93;;
15055;SDS011;7626;42.674;23.284;2023-03-14T11:24:49;12.27;;;7.73;;
15055;SDS011;7626;42.674;23.284;2023-03-14T11:27:21;7.97;;;7.17;;
15055;SDS011;7626;42.674;23.284;2023-03-14T11:29:59;8.77;;;6.80;;
15055;SDS011;7626;42.674;23.284;2023-03-14T11:32:35;8.60;;;7.00;;
15055;SDS011;7626;42.674;23.284;2023-03-14T11:35:03;28.93;;;8.03;;
15055;SDS011;7626;42.674;23.284;2023-03-14T11:37:32;11.67;;;6.53;;
15055;SDS011;7626;42.674;23.284;2023-03-14T11:39:59;25.20;;;6.97;;
15055;SDS011;7626;42.674;23.284;2023-03-14T11:42:28;13.20;;;6.03;;
15055;SDS011;7626;42.674;23.284;2023-03-14T11:44:55;6.77;;;5.77;;
15055;SDS011;7626;42.674;23.284;2023-03-14T11:47:24;12.50;;;6.33;;
15055;SDS011;7626;42.674;23.284;2023-03-14T11:49:53;14.67;;;6.40;;
15055;SDS011;7626;42.674;23.284;2023-03-14T11:52:20;9.00;;;5.30;;
15055;SDS011;7626;42.674;23.284;2023-03-14T11:54:49;9.37;;;6.33;;
15055;SDS011;7626;42.674;23.284;2023-03-14T11:57:16;11.87;;;5.97;;
15055;SDS011;7626;42.674;23.284;2023-03-14T11:59:46;7.63;;;5.97;;
15055;SDS011;7626;42.674;23.284;2023-03-14T12:02:15;6.20;;;5.07;;
15055;SDS011;7626;42.674;23.284;2023-03-14T12:04:46;5.20;;;4.50;;
15055;SDS011;7626;42.674;23.284;2023-03-14T12:07:17;5.87;;;4.77;;
15055;SDS011;7626;42.674;23.284;2023-03-14T12:09:46;7.10;;;4.50;;
15055;SDS011;7626;42.674;23.284;2023-03-14T12:12:14;5.87;;;4.43;;
15055;SDS011;7626;42.674;23.284;2023-03-14T12:14:46;6.00;;;4.70;;
15055;SDS011;7626;42.674;23.284;2023-03-14T12:17:18;4.67;;;4.10;;
15055;SDS011;7626;42.674;23.284;2023-03-14T12:19:47;4.80;;;4.13;;
15055;SDS011;7626;42.674;23.284;2023-03-14T12:22:18;5.40;;;4.10;;
15055;SDS011;7626;42.674;23.284;2023-03-14T12:24:47;4.83;;;4.33;;
15055;SDS011;7626;42.674;23.284;2023-03-14T12:29:57;6.33;;;4.40;;
15055;SDS011;7626;42.674;23.284;2023-03-14T12:32:24;5.20;;;3.97;;
15055;SDS011;7626;42.674;23.284;2023-03-14T12:34:52;5.83;;;4.27;;
15055;SDS011;7626;42.674;23.284;2023-03-14T12:37:26;5.03;;;3.70;;
15055;SDS011;7626;42.674;23.284;2023-03-14T12:42:51;5.63;;;4.23;;
15055;SDS011;7626;42.674;23.284;2023-03-14T12:45:24;5.00;;;4.07;;
15055;SDS011;7626;42.674;23.284;2023-03-14T12:47:55;6.23;;;4.23;;
15055;SDS011;7626;42.674;23.284;2023-03-14T12:50:28;7.47;;;5.00;;
15055;SDS011;7626;42.674;23.284;2023-03-14T12:53:01;8.40;;;5.30;;
15055;SDS011;7626;42.674;23.284;2023-03-14T12:55:33;5.13;;;4.57;;
15055;SDS011;7626;42.674;23.284;2023-03-14T12:58:03;5.00;;;4.00;;
15055;SDS011;7626;42.674;23.284;2023-03-14T13:00:32;5.80;;;3.63;;
15055;SDS011;7626;42.674;23.284;2023-03-14T13:03:00;4.57;;;3.43;;
15055;SDS011;7626;42.674;23.284;2023-03-14T13:05:29;5.70;;;3.70;;
15055;SDS011;7626;42.674;23.284;2023-03-14T13:08:03;4.33;;;3.40;;
15055;SDS011;7626;42.674;23.284;2023-03-14T13:10:30;4.27;;;3.20;;
15055;SDS011;7626;42.674;23.284;2023-03-14T13:12:57;5.37;;;3.60;;
15055;SDS011;7626;42.674;23.284;2023-03-14T13:15:29;4.87;;;3.47;;
15055;SDS011;7626;42.674;23.284;2023-03-14T13:17:59;5.03;;;4.07;;
15055;SDS011;7626;42.674;23.284;2023-03-14T13:20:31;4.43;;;3.37;;
15055;SDS011;7626;42.674;23.284;2023-03-14T13:22:58;3.53;;;3.23;;
15055;SDS011;7626;42.674;23.284;2023-03-14T13:25:28;4.17;;;3.20;;
15055;SDS011;7626;42.674;23.284;2023-03-14T13:27:55;4.83;;;3.00;;
15055;SDS011;7626;42.674;23.284;2023-03-14T13:30:23;4.20;;;3.57;;
15055;SDS011;7626;42.674;23.284;2023-03-14T13:32:50;4.77;;;2.90;;
15055;SDS011;7626;42.674;23.284;2023-03-14T13:35:18;3.80;;;2.63;;
15055;SDS011;7626;42.674;23.284;2023-03-14T13:37:46;3.83;;;3.13;;
15055;SDS011;7626;42.674;23.284;2023-03-14T13:40:25;2.87;;;2.57;;
15055;SDS011;7626;42.674;23.284;2023-03-14T13:43:01;4.47;;;3.80;;
15055;SDS011;7626;42.674;23.284;2023-03-14T13:45:28;2.93;;;2.67;;
15055;SDS011;7626;42.674;23.284;2023-03-14T13:47:54;3.53;;;2.90;;
15055;SDS011;7626;42.674;23.284;2023-03-14T13:50:21;6.17;;;3.60;;
15055;SDS011;7626;42.674;23.284;2023-03-14T13:52:49;3.20;;;2.70;;
15055;SDS011;7626;42.674;23.284;2023-03-14T13:55:21;4.57;;;2.70;;
15055;SDS011;7626;42.674;23.284;2023-03-14T13:57:48;4.80;;;2.70;;
15055;SDS011;7626;42.674;23.284;2023-03-14T14:00:19;4.77;;;3.00;;
15055;SDS011;7626;42.674;23.284;2023-03-14T14:02:46;3.60;;;2.80;;
15055;SDS011;7626;42.674;23.284;2023-03-14T14:05:14;6.33;;;3.13;;
15055;SDS011;7626;42.674;23.284;2023-03-14T14:07:42;4.73;;;3.10;;
15055;SDS011;7626;42.674;23.284;2023-03-14T14:10:10;3.73;;;2.70;;
15055;SDS011;7626;42.674;23.284;2023-03-14T14:12:38;4.00;;;2.67;;
15055;SDS011;7626;42.674;23.284;2023-03-14T14:15:06;3.47;;;2.80;;
15055;SDS011;7626;42.674;23.284;2023-03-14T14:17:34;3.87;;;2.53;;
15055;SDS011;7626;42.674;23.284;2023-03-14T14:20:02;3.37;;;2.60;;
15055;SDS011;7626;42.674;23.284;2023-03-14T14:22:30;3.80;;;2.77;;
15055;SDS011;7626;42.674;23.284;2023-03-14T14:24:57;3.43;;;2.57;;
15055;SDS011;7626;42.674;23.284;2023-03-14T14:27:27;3.80;;;2.60;;
15055;SDS011;7626;42.674;23.284;2023-03-14T14:29:57;3.30;;;2.30;;
15055;SDS011;7626;42.674;23.284;2023-03-14T14:32:24;2.87;;;2.50;;
15055;SDS011;7626;42.674;23.284;2023-03-14T14:34:56;2.90;;;2.50;;
15055;SDS011;7626;42.674;23.284;2023-03-14T14:37:23;3.43;;;2.90;;
15055;SDS011;7626;42.674;23.284;2023-03-14T14:39:50;3.47;;;2.40;;